createdAt,value
2023-08-24T00:00:26.995Z,97917.28
2023-08-24T00:03:15.085Z,97917.47
2023-08-24T00:05:43.937Z,97917.36
2023-08-24T00:08:13.109Z,97918.17
2023-08-24T00:10:47.573Z,97919.80
2023-08-24T00:13:16.742Z,97922.48
2023-08-24T00:15:46.590Z,97926.75
2023-08-24T00:18:14.907Z,97928.36
2023-08-24T00:20:43.025Z,97926.90
2023-08-24T00:23:11.044Z,97928.90
2023-08-24T00:25:39.402Z,97928.45
2023-08-24T00:28:07.911Z,97929.46
2023-08-24T00:30:38.067Z,97933.02
2023-08-24T00:33:07.107Z,97935.96
2023-08-24T00:35:35.248Z,97938.07
2023-08-24T00:38:04.654Z,97938.20
2023-08-24T00:40:33.717Z,97941.45
2023-08-24T00:43:02.430Z,97943.84
2023-08-24T00:45:31.989Z,97943.16
2023-08-24T00:48:00.478Z,97945.44
2023-08-24T00:50:29.139Z,97945.49
2023-08-24T00:52:57.491Z,97947.27
2023-08-24T00:55:25.914Z,97949.29
2023-08-24T00:57:57.081Z,97954.73
2023-08-24T01:00:25.313Z,97955.63
2023-08-24T01:02:53.856Z,97955.68
2023-08-24T01:05:22.444Z,97954.40
2023-08-24T01:07:50.962Z,97953.45
2023-08-24T01:10:20.299Z,97949.32
2023-08-24T01:13:09.372Z,97949.80
2023-08-24T01:15:37.574Z,97954.09
2023-08-24T01:18:10.232Z,97954.13
2023-08-24T01:20:40.232Z,97950.67
2023-08-24T01:24:05.624Z,97945.34
2023-08-24T01:26:35.282Z,97940.94
2023-08-24T01:29:06.002Z,97937.73
2023-08-24T01:31:34.870Z,97935.98
2023-08-24T01:34:03.181Z,97932.10
2023-08-24T01:36:31.826Z,97928.88
2023-08-24T01:39:12.566Z,97929.02
2023-08-24T01:41:46.086Z,97933.08
2023-08-24T01:44:19.060Z,97929.70
2023-08-24T01:46:49.371Z,97929.79
2023-08-24T01:49:19.784Z,97927.66
2023-08-24T01:51:48.447Z,97929.36
2023-08-24T01:54:16.696Z,97930.36
2023-08-24T01:56:45.383Z,97929.35
2023-08-24T01:59:13.854Z,97926.81
2023-08-24T02:01:42.164Z,97923.70
2023-08-24T02:04:11.532Z,97920.77
2023-08-24T02:06:39.584Z,97920.33
2023-08-24T02:09:07.671Z,97916.48
2023-08-24T02:11:35.772Z,97914.04
2023-08-24T02:14:03.918Z,97909.81
2023-08-24T02:16:32.011Z,97909.77
2023-08-24T02:19:00.330Z,97906.77
2023-08-24T02:21:28.605Z,97906.23
2023-08-24T02:23:56.858Z,97910.08
2023-08-24T02:26:25.321Z,97912.42
2023-08-24T02:28:53.339Z,97910.23
2023-08-24T02:31:21.641Z,97913.90
2023-08-24T02:33:50.307Z,97913.90
2023-08-24T02:36:19.329Z,97913.08
2023-08-24T02:38:48.377Z,97911.33
2023-08-24T02:41:16.734Z,97915.00
2023-08-24T02:43:47.501Z,97914.92
2023-08-24T02:46:15.962Z,97918.55
2023-08-24T02:48:44.155Z,97918.11
2023-08-24T02:51:12.464Z,97918.73
2023-08-24T02:53:40.635Z,97916.80
2023-08-24T02:56:08.696Z,97913.20
2023-08-24T02:58:36.865Z,97915.88
2023-08-24T03:01:10.583Z,97914.46
2023-08-24T03:03:39.013Z,97915.64
2023-08-24T03:06:08.712Z,97913.56
2023-08-24T03:08:38.165Z,97910.08
2023-08-24T03:11:06.594Z,97914.53
2023-08-24T03:13:39.467Z,97916.60
2023-08-24T03:16:09.730Z,97915.98
2023-08-24T03:18:38.762Z,97917.38
2023-08-24T03:21:07.628Z,97914.14
2023-08-24T03:23:36.158Z,97912.11
2023-08-24T03:26:04.589Z,97912.33
2023-08-24T03:28:32.731Z,97916.09
2023-08-24T03:31:01.637Z,97916.87
2023-08-24T03:33:30.448Z,97918.96
2023-08-24T03:35:58.543Z,97920.33
2023-08-24T03:38:26.847Z,97923.55
2023-08-24T03:41:01.922Z,97926.34
2023-08-24T03:43:34.520Z,97927.95
2023-08-24T03:46:03.075Z,97930.65
2023-08-24T03:48:31.383Z,97935.23
2023-08-24T03:51:00.193Z,97938.17
2023-08-24T03:53:28.388Z,97935.41
2023-08-24T03:55:56.559Z,97937.11
2023-08-24T03:58:25.167Z,97938.95
2023-08-24T04:00:55.423Z,97937.11
2023-08-24T04:03:23.834Z,97937.87
2023-08-24T04:05:52.216Z,97943.71
2023-08-24T04:08:20.506Z,97946.28
2023-08-24T04:10:48.760Z,97945.73
2023-08-24T04:13:16.826Z,97945.23
2023-08-24T04:15:45.657Z,97944.40
2023-08-24T04:18:14.098Z,97949.23
2023-08-24T04:20:42.242Z,97949.48
2023-08-24T04:23:11.457Z,97944.80
2023-08-24T04:25:45.223Z,97951.31
2023-08-24T04:28:13.340Z,97952.30
2023-08-24T04:30:41.486Z,97952.61
2023-08-24T04:33:09.731Z,97954.60
2023-08-24T04:35:38.068Z,97956.55
2023-08-24T04:38:06.269Z,97955.88
2023-08-24T04:40:51.054Z,97954.48
2023-08-24T04:43:20.745Z,97956.59
2023-08-24T04:45:53.810Z,97956.56
2023-08-24T04:48:23.267Z,97955.64
2023-08-24T04:50:51.972Z,97957.03
2023-08-24T04:53:20.998Z,97958.16
2023-08-24T04:55:49.125Z,97962.34
2023-08-24T04:58:17.311Z,97963.79
2023-08-24T05:00:46.425Z,97965.04
2023-08-24T05:03:14.884Z,97966.48
2023-08-24T05:05:43.413Z,97967.58
2023-08-24T05:08:13.428Z,97966.89
2023-08-24T05:10:42.281Z,97964.91
2023-08-24T05:13:10.518Z,97966.15
2023-08-24T05:15:39.156Z,97968.34
2023-08-24T05:18:07.658Z,97969.42
2023-08-24T05:20:36.052Z,97971.67
2023-08-24T05:23:04.477Z,97973.35
2023-08-24T05:25:32.574Z,97972.02
2023-08-24T05:28:00.679Z,97973.50
2023-08-24T05:30:30.549Z,97970.44
2023-08-24T05:32:58.970Z,97970.92
2023-08-24T05:35:28.728Z,97969.63
2023-08-24T05:37:57.025Z,97970.21
2023-08-24T05:40:25.305Z,97969.15
2023-08-24T05:42:54.596Z,97966.47
2023-08-24T05:45:24.719Z,97961.61
2023-08-24T05:47:55.205Z,97962.16
2023-08-24T05:50:23.704Z,97961.38
2023-08-24T05:52:52.490Z,97966.84
2023-08-24T05:55:21.109Z,97967.36
2023-08-24T05:57:49.712Z,97969.43
2023-08-24T06:00:18.703Z,97971.52
2023-08-24T06:02:46.840Z,97971.77
2023-08-24T06:05:15.128Z,97973.05
2023-08-24T06:07:43.248Z,97969.48
2023-08-24T06:10:11.665Z,97974.85
2023-08-24T06:12:40.361Z,97973.08
2023-08-24T06:15:11.361Z,97971.54
2023-08-24T06:17:39.686Z,97972.03
2023-08-24T06:20:11.701Z,97970.85
2023-08-24T06:22:40.016Z,97968.70
2023-08-24T06:25:10.110Z,97969.30
2023-08-24T06:27:38.388Z,97969.85
2023-08-24T06:30:07.370Z,97969.79
2023-08-24T06:32:35.692Z,97971.14
2023-08-24T06:35:05.801Z,97976.48
2023-08-24T06:37:33.945Z,97972.55
2023-08-24T06:40:02.043Z,97974.63
2023-08-24T06:42:30.206Z,97974.04
2023-08-24T06:44:58.860Z,97978.81
2023-08-24T06:47:27.191Z,97984.56
2023-08-24T06:49:55.302Z,97980.45
2023-08-24T06:52:23.519Z,97979.93
2023-08-24T06:54:54.699Z,97981.23
2023-08-24T06:57:23.726Z,97981.80
2023-08-24T06:59:53.124Z,97980.70
2023-08-24T07:02:21.275Z,97980.44
2023-08-24T07:04:49.776Z,97983.59
2023-08-24T07:07:18.222Z,97982.73
2023-08-24T07:09:46.402Z,97982.52
2023-08-24T07:12:14.664Z,97977.65
2023-08-24T07:14:42.908Z,97978.77
2023-08-24T07:17:11.163Z,97979.90
2023-08-24T07:19:39.319Z,97980.34
2023-08-24T07:22:07.544Z,97980.85
2023-08-24T07:24:45.466Z,97973.19
2023-08-24T07:27:14.551Z,97972.10
2023-08-24T07:29:42.594Z,97973.86
2023-08-24T07:32:12.368Z,97971.34
2023-08-24T07:34:40.804Z,97968.59
2023-08-24T07:37:08.885Z,97966.91
2023-08-24T07:39:39.379Z,97966.22
2023-08-24T07:42:07.547Z,97968.83
2023-08-24T07:44:37.041Z,97967.90
2023-08-24T07:47:05.278Z,97968.52
2023-08-24T07:49:33.570Z,97967.26
2023-08-24T07:52:01.581Z,97964.98
2023-08-24T07:54:29.549Z,97962.91
2023-08-24T07:56:57.829Z,97963.64
2023-08-24T07:59:25.888Z,97956.74
2023-08-24T08:01:54.010Z,97958.26
2023-08-24T08:04:22.917Z,97963.89
2023-08-24T08:06:51.210Z,97964.66
2023-08-24T08:09:19.244Z,97965.45
2023-08-24T08:11:47.881Z,97967.95
2023-08-24T08:14:16.000Z,97963.61
2023-08-24T08:16:47.188Z,97960.66
2023-08-24T08:19:15.470Z,97959.67
2023-08-24T08:21:43.928Z,97955.61
2023-08-24T08:24:17.785Z,97951.95
2023-08-24T08:26:53.814Z,97950.55
2023-08-24T08:29:22.665Z,97949.35
2023-08-24T08:31:51.232Z,97945.48
2023-08-24T08:34:19.586Z,97939.52
2023-08-24T08:36:47.805Z,97940.45
2023-08-24T08:39:16.555Z,97943.27
2023-08-24T08:41:46.029Z,97940.48
2023-08-24T08:44:15.895Z,97940.98
2023-08-24T08:46:44.648Z,97941.56
2023-08-24T08:49:17.285Z,97941.98
2023-08-24T08:51:45.488Z,97941.19
2023-08-24T08:54:13.970Z,97934.01
2023-08-24T08:56:42.792Z,97930.78
2023-08-24T08:59:15.954Z,97927.73
2023-08-24T09:01:46.762Z,97925.19
2023-08-24T09:04:15.474Z,97928.02
2023-08-24T09:06:44.250Z,97920.52
2023-08-24T09:09:13.286Z,97925.98
2023-08-24T09:11:43.434Z,97918.67
2023-08-24T09:14:11.846Z,97919.14
2023-08-24T09:16:40.745Z,97922.86
2023-08-24T09:19:12.425Z,97922.79
2023-08-24T09:21:42.740Z,97913.89
2023-08-24T09:24:12.587Z,97916.22
2023-08-24T09:26:44.091Z,97913.30
2023-08-24T09:29:15.187Z,97907.52
2023-08-24T09:31:47.091Z,97906.09
2023-08-24T09:34:15.837Z,97901.37
2023-08-24T09:36:46.210Z,97900.33
2023-08-24T09:39:17.991Z,97893.33
2023-08-24T09:41:53.261Z,97894.97
2023-08-24T09:44:21.629Z,97899.63
2023-08-24T09:46:51.592Z,97894.63
2023-08-24T09:49:20.506Z,97891.93
2023-08-24T09:51:50.026Z,97889.73
2023-08-24T09:54:23.908Z,97882.98
2023-08-24T09:56:53.441Z,97886.08
2023-08-24T09:59:25.981Z,97875.79
2023-08-24T10:01:58.502Z,97872.92
2023-08-24T10:04:29.613Z,97868.99
2023-08-24T10:07:17.165Z,97867.30
2023-08-24T10:09:54.313Z,97866.69
2023-08-24T10:12:26.001Z,97859.39
2023-08-24T10:14:54.148Z,97857.17
2023-08-24T10:17:23.482Z,97852.60
2023-08-24T10:19:54.344Z,97858.20
2023-08-24T10:22:22.567Z,97848.73
2023-08-24T10:24:50.999Z,97847.59
2023-08-24T10:27:19.791Z,97838.41
2023-08-24T10:29:48.067Z,97826.65
2023-08-24T10:32:16.373Z,97834.46
2023-08-24T10:34:44.802Z,97827.25
2023-08-24T10:37:13.353Z,97822.52
2023-08-24T10:39:48.356Z,97819.84
2023-08-24T10:42:16.883Z,97817.66
2023-08-24T10:44:50.703Z,97817.39
2023-08-24T10:47:18.794Z,97823.48
2023-08-24T10:50:08.081Z,97816.42
2023-08-24T10:52:42.516Z,97813.73
2023-08-24T10:55:27.916Z,97816.52
2023-08-24T10:58:01.230Z,97821.61
2023-08-24T11:00:31.070Z,97822.73
2023-08-24T11:03:01.281Z,97823.88
2023-08-24T11:05:32.471Z,97825.21
2023-08-24T11:08:06.440Z,97832.55
2023-08-24T11:10:43.641Z,97830.83
2023-08-24T11:13:16.210Z,97825.17
2023-08-24T11:15:46.393Z,97819.23
2023-08-24T11:18:15.531Z,97819.88
2023-08-24T11:20:45.829Z,97815.95
2023-08-24T11:23:16.042Z,97811.95
2023-08-24T11:25:44.738Z,97815.41
2023-08-24T11:28:18.212Z,97814.73
2023-08-24T11:30:47.283Z,97813.46
2023-08-24T11:33:15.885Z,97822.67
2023-08-24T11:35:48.113Z,97825.80
2023-08-24T11:38:16.381Z,97825.48
2023-08-24T11:40:44.560Z,97825.72
2023-08-24T11:43:12.645Z,97824.28
2023-08-24T11:45:43.453Z,97824.46
2023-08-24T11:48:11.847Z,97819.65
2023-08-24T11:50:40.620Z,97817.16
2023-08-24T11:53:08.876Z,97808.85
2023-08-24T11:55:45.823Z,97799.00
2023-08-24T11:58:17.291Z,97797.27
2023-08-24T12:00:48.260Z,97799.48
2023-08-24T12:03:17.112Z,97804.81
2023-08-24T12:05:45.796Z,97804.20
2023-08-24T12:08:13.977Z,97794.48
2023-08-24T12:10:45.826Z,97785.76
2023-08-24T12:13:14.250Z,97784.30
2023-08-24T12:15:42.659Z,97786.09
2023-08-24T12:18:15.285Z,97785.41
2023-08-24T12:20:43.707Z,97786.02
2023-08-24T12:23:12.422Z,97786.62
2023-08-24T12:25:44.542Z,97780.14
2023-08-24T12:28:20.403Z,97773.77
2023-08-24T12:30:52.612Z,97770.22
2023-08-24T12:33:31.117Z,97767.38
2023-08-24T12:36:00.288Z,97770.73
2023-08-24T12:38:28.762Z,97766.69
2023-08-24T12:40:57.243Z,97765.89
2023-08-24T12:43:25.270Z,97760.21
2023-08-24T12:45:53.757Z,97755.25
2023-08-24T12:48:22.291Z,97757.74
2023-08-24T12:50:50.638Z,97757.43
2023-08-24T12:53:18.876Z,97755.14
2023-08-24T12:55:47.336Z,97754.69
2023-08-24T12:58:15.437Z,97747.86
2023-08-24T13:00:43.914Z,97744.26
2023-08-24T13:03:12.659Z,97743.20
2023-08-24T13:05:41.093Z,97739.05
2023-08-24T13:08:09.754Z,97739.43
2023-08-24T13:10:37.960Z,97735.88
2023-08-24T13:13:06.101Z,97731.23
2023-08-24T13:15:34.435Z,97732.70
2023-08-24T13:18:02.479Z,97728.25
2023-08-24T13:20:30.463Z,97727.94
2023-08-24T13:22:58.858Z,97723.44
2023-08-24T13:25:26.846Z,97718.14
2023-08-24T13:27:54.784Z,97713.64
2023-08-24T13:30:22.973Z,97711.65
2023-08-24T13:32:51.191Z,97705.08
2023-08-24T13:35:19.519Z,97702.43
2023-08-24T13:37:48.507Z,97709.26
2023-08-24T13:40:16.653Z,97712.73
2023-08-24T13:42:45.918Z,97710.94
2023-08-24T13:45:13.967Z,97708.83
2023-08-24T13:47:42.044Z,97710.85
2023-08-24T13:50:10.605Z,97709.46
2023-08-24T13:52:38.542Z,97705.52
2023-08-24T13:55:12.636Z,97703.98
2023-08-24T13:57:41.599Z,97697.42
2023-08-24T14:00:10.256Z,97693.60
2023-08-24T14:02:41.315Z,97691.02
2023-08-24T14:05:10.776Z,97689.23
2023-08-24T14:07:39.056Z,97690.15
2023-08-24T14:10:10.716Z,97689.19
2023-08-24T14:12:38.728Z,97693.09
2023-08-24T14:15:07.805Z,97695.96
2023-08-24T14:17:36.226Z,97691.02
2023-08-24T14:20:05.561Z,97693.14
2023-08-24T14:22:33.899Z,97686.68
2023-08-24T14:25:02.094Z,97681.44
2023-08-24T14:27:30.060Z,97678.70
2023-08-24T14:29:58.006Z,97680.16
2023-08-24T14:32:25.939Z,97679.23
2023-08-24T14:34:53.880Z,97679.71
2023-08-24T14:37:22.103Z,97678.66
2023-08-24T14:39:50.835Z,97683.92
2023-08-24T14:42:19.178Z,97685.60
2023-08-24T14:44:47.141Z,97678.72
2023-08-24T14:47:15.470Z,97678.09
2023-08-24T14:49:43.529Z,97673.57
2023-08-24T14:52:11.500Z,97668.04
2023-08-24T14:54:39.463Z,97676.14
2023-08-24T14:57:08.568Z,97675.04
2023-08-24T14:59:37.701Z,97676.64
2023-08-24T15:02:06.349Z,97678.02
2023-08-24T15:04:34.269Z,97678.98
2023-08-24T15:07:02.166Z,97678.56
2023-08-24T15:09:30.145Z,97682.54
2023-08-24T15:11:58.075Z,97684.04
2023-08-24T15:14:28.965Z,97689.23
2023-08-24T15:16:57.122Z,97691.19
2023-08-24T15:19:25.354Z,97688.84
2023-08-24T15:21:53.330Z,97690.96
2023-08-24T15:24:21.264Z,97686.97
2023-08-24T15:26:50.778Z,97684.72
2023-08-24T15:29:19.591Z,97688.00
2023-08-24T15:31:47.888Z,97692.11
2023-08-24T15:34:16.189Z,97699.39
2023-08-24T15:36:45.394Z,97698.75
2023-08-24T15:39:13.561Z,97698.11
2023-08-24T15:41:41.806Z,97704.38
2023-08-24T15:44:09.965Z,97707.02
2023-08-24T15:46:38.818Z,97707.73
2023-08-24T15:49:06.769Z,97715.14
2023-08-24T15:51:34.903Z,97718.61
2023-08-24T15:54:02.871Z,97717.55
2023-08-24T15:56:31.593Z,97717.77
2023-08-24T15:58:59.777Z,97719.06
2023-08-24T16:01:27.766Z,97724.91
2023-08-24T16:03:55.885Z,97728.45
2023-08-24T16:06:24.278Z,97728.07
2023-08-24T16:08:52.306Z,97728.77
2023-08-24T16:11:21.906Z,97729.84
2023-08-24T16:13:51.037Z,97735.02
2023-08-24T16:16:19.004Z,97736.23
2023-08-24T16:18:47.318Z,97736.44
2023-08-24T16:21:15.801Z,97744.15
2023-08-24T16:23:44.646Z,97745.62
2023-08-24T16:26:12.564Z,97745.11
2023-08-24T16:28:40.712Z,97746.08
2023-08-24T16:31:09.057Z,97751.98
2023-08-24T16:33:37.221Z,97756.33
2023-08-24T16:36:05.327Z,97757.63
2023-08-24T16:38:33.295Z,97758.58
2023-08-24T16:41:01.432Z,97763.73
2023-08-24T16:43:30.432Z,97765.86
2023-08-24T16:45:58.854Z,97766.15
2023-08-24T16:48:27.269Z,97765.88
2023-08-24T16:50:55.320Z,97768.52
2023-08-24T16:53:23.471Z,97772.58
2023-08-24T16:55:52.492Z,97777.43
2023-08-24T16:58:20.636Z,97779.54
2023-08-24T17:00:48.940Z,97788.04
2023-08-24T17:03:17.165Z,97787.05
2023-08-24T17:05:45.430Z,97787.40
2023-08-24T17:08:13.498Z,97788.48
2023-08-24T17:10:41.437Z,97792.13
2023-08-24T17:13:09.658Z,97792.16
2023-08-24T17:15:37.873Z,97789.12
2023-08-24T17:18:06.264Z,97795.04
2023-08-24T17:20:38.012Z,97793.71
2023-08-24T17:23:05.950Z,97793.47
2023-08-24T17:25:34.100Z,97800.06
2023-08-24T17:28:01.998Z,97800.86
2023-08-24T17:30:30.226Z,97800.94
2023-08-24T17:32:59.969Z,97807.02
2023-08-24T17:35:29.724Z,97810.22
2023-08-24T17:37:58.327Z,97815.63
2023-08-24T17:40:26.542Z,97815.35
2023-08-24T17:42:54.617Z,97816.75
2023-08-24T17:45:25.443Z,97818.43
2023-08-24T17:47:53.980Z,97824.73
2023-08-24T17:50:22.354Z,97825.66
2023-08-24T17:52:50.404Z,97825.68
2023-08-24T17:55:18.403Z,97827.12
2023-08-24T17:57:46.382Z,97828.45
2023-08-24T18:00:14.526Z,97824.09
2023-08-24T18:02:43.244Z,97828.27
2023-08-24T18:05:11.520Z,97829.61
2023-08-24T18:07:39.509Z,97825.83
2023-08-24T18:10:07.743Z,97827.29
2023-08-24T18:12:36.102Z,97831.63
2023-08-24T18:15:05.298Z,97835.65
2023-08-24T18:17:33.466Z,97844.30
2023-08-24T18:20:02.040Z,97842.69
2023-08-24T18:22:30.010Z,97844.11
2023-08-24T18:24:58.564Z,97838.45
2023-08-24T18:27:26.806Z,97835.63
2023-08-24T18:29:56.472Z,97834.97
2023-08-24T18:32:25.566Z,97836.37
2023-08-24T18:34:54.012Z,97837.08
2023-08-24T18:37:22.423Z,97835.06
2023-08-24T18:39:50.634Z,97840.52
2023-08-24T18:42:18.589Z,97838.35
2023-08-24T18:44:46.632Z,97841.90
2023-08-24T18:47:14.735Z,97839.25
2023-08-24T18:49:42.729Z,97837.61
2023-08-24T18:52:11.265Z,97829.89
2023-08-24T18:54:39.907Z,97831.98
2023-08-24T18:57:08.192Z,97831.31
2023-08-24T18:59:36.331Z,97832.30
2023-08-24T19:02:04.519Z,97836.04
2023-08-24T19:04:32.488Z,97839.27
2023-08-24T19:07:00.621Z,97843.94
2023-08-24T19:09:28.852Z,97845.20
2023-08-24T19:11:57.045Z,97848.16
2023-08-24T19:14:25.359Z,97846.14
2023-08-24T19:16:53.302Z,97843.52
2023-08-24T19:19:21.381Z,97841.40
2023-08-24T19:21:49.278Z,97841.09
2023-08-24T19:24:19.041Z,97835.87
2023-08-24T19:26:47.118Z,97839.94
2023-08-24T19:29:15.627Z,97838.00
2023-08-24T19:31:45.174Z,97840.12
2023-08-24T19:34:13.510Z,97839.50
2023-08-24T19:36:41.503Z,97838.85
2023-08-24T19:39:09.527Z,97843.61
2023-08-24T19:41:46.473Z,97842.61
2023-08-24T19:44:23.014Z,97844.43
2023-08-24T19:46:51.024Z,97846.50
2023-08-24T19:49:19.131Z,97850.30
2023-08-24T19:51:47.023Z,97849.29
2023-08-24T19:54:15.715Z,97847.63
2023-08-24T19:56:43.962Z,97850.53
2023-08-24T19:59:11.893Z,97845.65
2023-08-24T20:01:40.146Z,97844.89
2023-08-24T20:04:08.880Z,97851.27
2023-08-24T20:06:37.124Z,97858.74
2023-08-24T20:09:07.373Z,97867.90
2023-08-24T20:11:35.509Z,97868.77
2023-08-24T20:14:03.638Z,97873.10
2023-08-24T20:16:31.766Z,97875.83
2023-08-24T20:18:59.654Z,97873.80
2023-08-24T20:21:27.858Z,97872.23
2023-08-24T20:23:55.985Z,97872.36
2023-08-24T20:26:24.194Z,97877.81
2023-08-24T20:28:52.266Z,97881.18
2023-08-24T20:31:20.204Z,97883.57
2023-08-24T20:33:48.092Z,97888.16
2023-08-24T20:36:17.333Z,97886.48
2023-08-24T20:38:45.565Z,97886.45
2023-08-24T20:41:14.248Z,97886.27
2023-08-24T20:43:42.247Z,97883.06
2023-08-24T20:46:10.357Z,97884.02
2023-08-24T20:48:38.459Z,97887.91
2023-08-24T20:51:06.382Z,97883.90
2023-08-24T20:53:34.563Z,97884.04
2023-08-24T20:56:02.926Z,97886.85
2023-08-24T20:58:31.058Z,97885.48
2023-08-24T21:01:04.337Z,97884.79
2023-08-24T21:03:32.458Z,97883.60
2023-08-24T21:06:01.030Z,97881.39
2023-08-24T21:08:28.973Z,97887.83
2023-08-24T21:11:00.368Z,97895.85
2023-08-24T21:13:28.489Z,97897.89
2023-08-24T21:15:58.959Z,97906.67
2023-08-24T21:18:27.206Z,97909.62
2023-08-24T21:20:59.722Z,97905.02
2023-08-24T21:23:28.333Z,97903.63
2023-08-24T21:25:56.217Z,97902.23
2023-08-24T21:28:24.197Z,97897.56
2023-08-24T21:30:52.205Z,97899.04
2023-08-24T21:33:20.719Z,97899.48
2023-08-24T21:35:49.332Z,97894.46
2023-08-24T21:38:17.329Z,97897.77
2023-08-24T21:40:45.349Z,97899.14
2023-08-24T21:43:13.662Z,97899.06
2023-08-24T21:45:41.759Z,97900.75
2023-08-24T21:48:11.026Z,97908.54
2023-08-24T21:50:40.827Z,97918.09
2023-08-24T21:53:08.877Z,97924.76
2023-08-24T21:55:38.222Z,97926.20
2023-08-24T21:58:06.270Z,97924.50
2023-08-24T22:00:35.382Z,97922.97
2023-08-24T22:03:03.671Z,97922.88
2023-08-24T22:05:32.918Z,97920.02
2023-08-24T22:08:00.993Z,97925.85
2023-08-24T22:10:29.599Z,97925.96
2023-08-24T22:12:57.588Z,97924.70
2023-08-24T22:15:25.712Z,97920.61
2023-08-24T22:17:54.119Z,97918.15
2023-08-24T22:20:22.782Z,97919.11
2023-08-24T22:22:52.062Z,97920.79
2023-08-24T22:25:20.691Z,97921.97
2023-08-24T22:27:48.834Z,97921.80
2023-08-24T22:30:17.581Z,97927.59
2023-08-24T22:32:45.996Z,97925.36
2023-08-24T22:35:16.619Z,97920.46
2023-08-24T22:37:44.998Z,97916.50
2023-08-24T22:40:13.134Z,97914.66
2023-08-24T22:42:41.339Z,97917.76
2023-08-24T22:45:10.546Z,97912.92
2023-08-24T22:47:39.251Z,97908.13
2023-08-24T22:50:12.143Z,97902.64
2023-08-24T22:52:42.668Z,97900.27
2023-08-24T22:55:13.210Z,97900.51
2023-08-24T22:57:41.356Z,97901.91
2023-08-24T23:00:10.610Z,97895.61
2023-08-24T23:02:38.865Z,97890.39
2023-08-24T23:05:07.235Z,97883.70
2023-08-24T23:07:35.206Z,97884.50
2023-08-24T23:10:07.004Z,97887.84
2023-08-24T23:12:35.602Z,97882.80
2023-08-24T23:15:04.431Z,97885.14
2023-08-24T23:17:32.702Z,97886.64
2023-08-24T23:20:04.235Z,97892.69
2023-08-24T23:22:32.553Z,97886.67
2023-08-24T23:25:00.690Z,97885.20
2023-08-24T23:27:29.344Z,97886.64
2023-08-24T23:30:01.641Z,97891.27
2023-08-24T23:32:30.301Z,97890.00
2023-08-24T23:34:58.353Z,97889.52
2023-08-24T23:37:26.498Z,97883.33
2023-08-24T23:39:54.570Z,97881.18
2023-08-24T23:42:22.994Z,97878.67
2023-08-24T23:44:52.476Z,97871.66
2023-08-24T23:47:20.869Z,97871.59
2023-08-24T23:49:49.102Z,97868.27
2023-08-24T23:52:17.039Z,97862.24
2023-08-24T23:54:45.173Z,97861.96
2023-08-24T23:57:13.331Z,97861.08
2023-08-24T23:59:41.225Z,97860.86
